Barranco, Belize

11:25 AM CST on July 28, 2017 (GMT -0600)
Tierra Colorada | | Change Station

Elev 180 ft 15.84 °N, 89.18 °W | Updated 4 seconds ago

Partly Cloudy
Partly Cloudy
88.2 °F
Feels Like 99 °F
N
4.9
Wind Variable Wind from East
Gusts 7.4 mph

Today
High -- | Low -- °F
--% Chance of Precip.
Yesterday
High -- | Low -- °F
Precip. -- in
Pressure 29.95 in
Visibility 6.2 miles
Clouds Few 1800 ft
Scattered Clouds 20000 ft
Heat Index 99 °F
Dew Point 76 °F
Humidity 67%
Rainfall 0.00 in
Snow Depth Not available.
5:36 AM 6:28 PM
Waxing Crescent, 31% visible
METAR MGPB 281700Z 36004KT 9999 FEW018 SCT200 30/26 Q1014 A2994 CB DIST N/NW
Pressure 29.95 in
Visibility 6.2 miles
Clouds Few 1800 ft
Scattered Clouds 20000 ft
Heat Index 99 °F
Dew Point 76 °F
Humidity 67%
Rainfall 0.00 in
Snow Depth Not available.
5:36 AM 6:28 PM
Waxing Crescent, 31% visible
METAR MGPB 281700Z 36004KT 9999 FEW018 SCT200 30/26 Q1014 A2994 CB DIST N/NW

Get Severe Weather Alerts

Thanks for signing up!

Be on the lookout for a verification email in your inbox.

You'll start receiving the daily forecast at 6 AM.

×

10-Day Weather Forecast

No radar image for this location.
×

Almanac

Astronomy

Jul. 28, 2017 Rise Set
Actual Time
Civil Twilight
Nautical Twilight
Astronomical Twilight
Moon
Length of Visible Light
Length of Day
Tomorrow will be .
, % of the Moon is Illuminated

Today's Extremes

Country Highs Country Lows

Community

WunderPhotos

Category 6

Welcome to Category 6. This is the collective home for Weather Underground's featured writeups by Dr. Jeff Masters (right), Bob Henson (left), Chris Burt, and other regular contributors.

Nearby

Air Quality

  Air Quality AQ Index Pollutant
Not available.

Snow Depth

Station Depth Elevation

Earthquake Activity

City Distance Mag. Time & Date
Minimum magnitude displayed is 2.5.

Coastal Water Temperatures

Place Temperature

Stations

Nearby Weather Stations

Station Location Temp. Windchill Dew Point Humidity Wind Precip. Elev Updated Type